Global Endeavor — 3EOJ9 — position and weather

sailwx.info

Track history (hours):
 
Tides and Currents Weather Stations Pressure Air Temp Water Temp Dewpoint Dewpoint Depression Visibility Wind Speed Wind Dir Waves Ship Positions

Global Endeavor

Last reported at 2015-Jan-24 21:28 UTC. Time now 2015-Feb-01 00:28 UTC.
Position N 48°31' W 126°23'.

Length 175 m; draft 10.3 m.

Type: Cargo ship. MMSI: 356619000.

Date/timePositionNaut miles runAvg speedWind from/ knotsBaromVisibWave heightAir tempDewpointWater temp
2015-Jan-24 21:28N 48°31' W 126°23'8 8.7
2015-Jan-24 20:33N 48°30' W 126°11'9 8.8
2015-Jan-24 19:33N 48°31' W 125°58'9 9.0
2015-Jan-24 18:33N 48°30' W 125°44'9 9.1
2015-Jan-24 17:33N 48°31' W 125°30'9 9.1
2015-Jan-24 16:33N 48°31' W 125°17'9 9.1
2015-Jan-24 15:33N 48°30' W 125°03'10 9.5
2015-Jan-24 14:33N 48°31' W 124°49'8 7.9
2015-Jan-24 13:33N 48°29' W 124°37'9 8.7
2015-Jan-24 12:33N 48°25' W 124°25'9 9.2
2015-Jan-24 11:33N 48°22' W 124°12'10 9.6
2015-Jan-24 10:33N 48°18' W 123°59'1110.9
2015-Jan-24 09:33N 48°16' W 123°43'1010.2
2015-Jan-24 08:33N 48°19' W 123°28'9 9.3
2015-Jan-24 07:33N 48°24' W 123°16'1413.7
2015-Jan-24 06:33N 48°37' W 123°14'1212.1
2015-Jan-24 05:33N 48°47' W 123°02'1211.9
2015-Jan-24 04:33N 48°56' W 123°13'1313.2
2015-Jan-24 03:33N 49°05' W 123°28'1312.5
2015-Jan-24 02:33N 49°12' W 123°44'8 8.1
2015-Jan-24 01:33N 49°10' W 123°56'0 0.1
2015-Jan-24 00:32N 49°10' W 123°55'0 0.0
2015-Jan-23 23:14N 49°10' W 123°55'0 0.0
2015-Jan-23 22:30N 49°10' W 123°55'0 0.0
2015-Jan-23 21:32N 49°10' W 123°55'0 0.0
2015-Jan-23 20:32N 49°10' W 123°55'0 0.0
2015-Jan-23 19:26N 49°10' W 123°55'0 0.0
2015-Jan-23 18:32N 49°10' W 123°55'0 0.0
2015-Jan-23 17:32N 49°10' W 123°55'0 0.0
2015-Jan-23 16:26N 49°10' W 123°55'0 0.0
2015-Jan-23 15:29N 49°10' W 123°55'0 0.0
2015-Jan-23 14:20N 49°10' W 123°55'0 0.0
2015-Jan-23 13:32N 49°10' W 123°55'0 0.0
2015-Jan-23 12:32N 49°10' W 123°55'0 0.0
2015-Jan-23 11:32N 49°10' W 123°55'0 0.0
2015-Jan-23 10:32N 49°10' W 123°55'0 0.0
2015-Jan-23 09:32N 49°10' W 123°55'0 0.0
2015-Jan-23 08:32N 49°10' W 123°55'0 0.0
2015-Jan-23 07:32N 49°10' W 123°55'0 0.0
2015-Jan-23 06:32N 49°10' W 123°55'0 0.0
2015-Jan-23 05:20N 49°10' W 123°55'0 0.0
2015-Jan-23 03:29N 49°10' W 123°55'0 0.0
2015-Jan-23 01:20N 49°10' W 123°55'0 0.0
2015-Jan-23 00:20N 49°10' W 123°55'0 0.0
2015-Jan-22 23:08N 49°10' W 123°55'0 0.0
2015-Jan-22 22:32N 49°10' W 123°55'0 0.0
2015-Jan-22 21:14N 49°10' W 123°55'0 0.0
2015-Jan-22 20:20N 49°10' W 123°55'0 0.0
2015-Jan-22 19:08N 49°10' W 123°55'0 0.0
2015-Jan-22 18:33N 49°10' W 123°55'0 0.0
2015-Jan-22 16:12N 49°10' W 123°55'0 0.0
2015-Jan-22 12:23N 49°10' W 123°55'0 0.0
2015-Jan-22 10:32N 49°10' W 123°55'0 0.0
2015-Jan-22 07:17N 49°10' W 123°55'0 0.0
2015-Jan-22 06:23N 49°10' W 123°55'0 0.0
2015-Jan-22 05:17N 49°10' W 123°55'0 0.0
2015-Jan-22 00:08N 49°10' W 123°55'0 0.0
2015-Jan-21 23:26N 49°10' W 123°55'0 0.0
2015-Jan-21 22:35N 49°10' W 123°55'0 0.0
2015-Jan-21 22:11N 49°10' W 123°55'0 0.0
2015-Jan-21 21:29N 49°10' W 123°55'0 0.0
2015-Jan-21 20:29N 49°10' W 123°55'0 0.0
2015-Jan-21 19:14N 49°10' W 123°55'0 0.0
2015-Jan-21 18:20N 49°10' W 123°55'0 0.0
2015-Jan-21 17:29N 49°10' W 123°55'0 0.0
2015-Jan-21 15:14N 49°10' W 123°55'0 0.0
2015-Jan-21 11:17N 49°10' W 123°55'0 0.0
2015-Jan-21 09:17N 49°10' W 123°55'0 0.0
2015-Jan-21 08:29N 49°10' W 123°55'0 0.0
2015-Jan-21 07:30N 49°10' W 123°55'0 0.0
2015-Jan-21 06:29N 49°10' W 123°55'0 0.0
2015-Jan-21 05:29N 49°10' W 123°55'0 0.0
2015-Jan-21 04:26N 49°10' W 123°55'0 0.0
2015-Jan-21 03:23N 49°10' W 123°55'0 0.0
2015-Jan-21 01:12N 49°10' W 123°55'0 0.0
2015-Jan-20 23:12N 49°10' W 123°55'0 0.0
2015-Jan-20 21:30N 49°10' W 123°55'0 0.0
2015-Jan-20 18:17N 49°10' W 123°55'0 0.0
2015-Jan-20 17:11N 49°10' W 123°55'0 0.0
2015-Jan-20 16:11N 49°10' W 123°55'0 0.0
2015-Jan-20 15:29N 49°10' W 123°55'0 0.0
2015-Jan-20 14:29N 49°10' W 123°55'0 0.0
2015-Jan-20 13:05N 49°10' W 123°55'0 0.0
2015-Jan-20 12:29N 49°10' W 123°55'0 0.0
2015-Jan-20 11:29N 49°10' W 123°55'0 0.0
2015-Jan-20 10:32N 49°10' W 123°55'0 0.0
2015-Jan-20 09:26N 49°10' W 123°55'0 0.0
2015-Jan-20 08:32N 49°10' W 123°55'0 0.0
2015-Jan-20 07:29N 49°10' W 123°55'0 0.0
2015-Jan-20 06:29N 49°10' W 123°55'0 0.0
2015-Jan-20 05:29N 49°10' W 123°55'0 0.0
2015-Jan-20 04:05N 49°10' W 123°55'0 0.0
2015-Jan-20 03:17N 49°10' W 123°55'0 0.0
2015-Jan-19 21:29N 49°10' W 123°55'0 0.0
2015-Jan-19 19:17N 49°10' W 123°55'0 0.0
2015-Jan-19 18:17N 49°10' W 123°55'0 0.0
2015-Jan-19 14:21N 49°10' W 123°55'0 0.0
2015-Jan-19 10:29N 49°10' W 123°55'0 0.0
2015-Jan-19 09:23N 49°10' W 123°55'0 0.0
2015-Jan-19 08:32N 49°10' W 123°55'0 0.0
2015-Jan-19 07:26N 49°10' W 123°55'0 0.0
2015-Jan-19 06:32N 49°10' W 123°55'0 0.0
2015-Jan-19 05:29N 49°10' W 123°55'0 0.0
2015-Jan-19 03:29N 49°10' W 123°55'0 0.0
2015-Jan-19 01:05N 49°10' W 123°55'0 0.0
2015-Jan-18 22:32N 49°10' W 123°55'0 0.0
2015-Jan-18 21:05N 49°10' W 123°55'0 0.0
2015-Jan-18 20:29N 49°10' W 123°55'0 0.0
2015-Jan-18 19:23N 49°10' W 123°55'0 0.0
2015-Jan-18 18:26N 49°10' W 123°55'0 0.0
2015-Jan-18 17:26N 49°10' W 123°55'0 0.0
2015-Jan-18 16:32N 49°10' W 123°55'0 0.0
2015-Jan-18 15:32N 49°10' W 123°55'0 0.0
2015-Jan-18 14:29N 49°10' W 123°55'0 0.0
2015-Jan-18 13:23N 49°10' W 123°56'0 0.0
2015-Jan-18 12:26N 49°10' W 123°55'0 0.0
2015-Jan-18 11:32N 49°10' W 123°55'0 0.0
2015-Jan-18 10:29N 49°10' W 123°55'0 0.0
2015-Jan-18 09:29N 49°10' W 123°55'0 0.0
2015-Jan-18 08:32N 49°10' W 123°55'0 0.0
2015-Jan-18 07:32N 49°10' W 123°55'0 0.0
2015-Jan-18 06:32N 49°10' W 123°55'0 0.0
2015-Jan-18 05:20N 49°10' W 123°55'0 0.0
2015-Jan-18 04:32N 49°10' W 123°55'0 0.0
2015-Jan-18 03:20N 49°10' W 123°55'0 0.0
2015-Jan-18 02:26N 49°10' W 123°55'0 0.0
2015-Jan-18 01:32N 49°10' W 123°55'0 0.0
2015-Jan-18 00:32N 49°10' W 123°55'0 0.0
2015-Jan-17 23:26N 49°10' W 123°55'0 0.0
2015-Jan-17 22:32N 49°10' W 123°55'0 0.0
2015-Jan-17 21:32N 49°10' W 123°55'0 0.0
2015-Jan-17 20:32N 49°10' W 123°55'0 0.0
2015-Jan-17 19:26N 49°10' W 123°55'0 0.0
2015-Jan-17 18:29N 49°10' W 123°55'0 0.0
2015-Jan-17 17:33N 49°10' W 123°55'0 0.0
2015-Jan-17 16:11N 49°10' W 123°55'0 0.0
2015-Jan-17 15:29N 49°10' W 123°55'0 0.0
2015-Jan-17 14:29N 49°10' W 123°55'0 0.0
2015-Jan-17 13:29N 49°10' W 123°55'0 0.0
2015-Jan-17 12:29N 49°10' W 123°55'0 0.0
2015-Jan-17 11:29N 49°10' W 123°55'0 0.0
2015-Jan-17 10:32N 49°10' W 123°55'0 0.0
2015-Jan-17 09:32N 49°10' W 123°55'4 3.6
2015-Jan-17 08:33N 49°13' W 123°52'1313.6
2015-Jan-17 07:33N 49°09' W 123°32'1515.4
2015-Jan-17 06:33N 48°59' W 123°13'1514.5
2015-Jan-17 05:33N 48°48' W 122°60'1312.7
2015-Jan-17 04:34N 48°40' W 123°14'1212.3
2015-Jan-17 03:34N 48°28' W 123°10'1111.0
2015-Jan-17 02:34N 48°21' W 123°24'1111.2
2015-Jan-17 01:33N 48°13' W 123°35'1212.0
2015-Jan-17 00:32N 48°14' W 123°54'1111.8
2015-Jan-16 23:33N 48°18' W 124°10'1211.8
2015-Jan-16 22:33N 48°23' W 124°26'1312.5
2015-Jan-16 21:33N 48°28' W 124°43'1312.6
2015-Jan-16 20:33N 48°29' W 125°02'1212.5
2015-Jan-16 19:33N 48°21' W 125°17'1212.2
2015-Jan-16 18:33N 48°13' W 125°31'  
Track history (hours):
 
Tides and Currents Weather Stations Pressure Air Temp Water Temp Dewpoint Dewpoint Depression Visibility Wind Speed Wind Dir Waves Ship Positions

Global Endeavor

Last reported at 2015-Jan-24 21:28 UTC. Time now 2015-Feb-01 00:28 UTC.
Position N 48°31' W 126°23'.

Length 175 m; draft 10.3 m.

Type: Cargo ship. MMSI: 356619000.

Date/timePositionNaut miles runAvg speedWind from/ knotsBaromVisibWave heightAir tempDewpointWater temp
2015-Jan-24 21:28N 48°31' W 126°23'8 8.7
2015-Jan-24 20:33N 48°30' W 126°11'9 8.8
2015-Jan-24 19:33N 48°31' W 125°58'9 9.0
2015-Jan-24 18:33N 48°30' W 125°44'9 9.1
2015-Jan-24 17:33N 48°31' W 125°30'9 9.1
2015-Jan-24 16:33N 48°31' W 125°17'9 9.1
2015-Jan-24 15:33N 48°30' W 125°03'10 9.5
2015-Jan-24 14:33N 48°31' W 124°49'8 7.9
2015-Jan-24 13:33N 48°29' W 124°37'9 8.7
2015-Jan-24 12:33N 48°25' W 124°25'9 9.2
2015-Jan-24 11:33N 48°22' W 124°12'10 9.6
2015-Jan-24 10:33N 48°18' W 123°59'1110.9
2015-Jan-24 09:33N 48°16' W 123°43'1010.2
2015-Jan-24 08:33N 48°19' W 123°28'9 9.3
2015-Jan-24 07:33N 48°24' W 123°16'1413.7
2015-Jan-24 06:33N 48°37' W 123°14'1212.1
2015-Jan-24 05:33N 48°47' W 123°02'1211.9
2015-Jan-24 04:33N 48°56' W 123°13'1313.2
2015-Jan-24 03:33N 49°05' W 123°28'1312.5
2015-Jan-24 02:33N 49°12' W 123°44'8 8.1
2015-Jan-24 01:33N 49°10' W 123°56'0 0.1
2015-Jan-24 00:32N 49°10' W 123°55'0 0.0
2015-Jan-23 23:14N 49°10' W 123°55'0 0.0
2015-Jan-23 22:30N 49°10' W 123°55'0 0.0
2015-Jan-23 21:32N 49°10' W 123°55'0 0.0
2015-Jan-23 20:32N 49°10' W 123°55'0 0.0
2015-Jan-23 19:26N 49°10' W 123°55'0 0.0
2015-Jan-23 18:32N 49°10' W 123°55'0 0.0
2015-Jan-23 17:32N 49°10' W 123°55'0 0.0
2015-Jan-23 16:26N 49°10' W 123°55'0 0.0
2015-Jan-23 15:29N 49°10' W 123°55'0 0.0
2015-Jan-23 14:20N 49°10' W 123°55'0 0.0
2015-Jan-23 13:32N 49°10' W 123°55'0 0.0
2015-Jan-23 12:32N 49°10' W 123°55'0 0.0
2015-Jan-23 11:32N 49°10' W 123°55'0 0.0
2015-Jan-23 10:32N 49°10' W 123°55'0 0.0
2015-Jan-23 09:32N 49°10' W 123°55'0 0.0
2015-Jan-23 08:32N 49°10' W 123°55'0 0.0
2015-Jan-23 07:32N 49°10' W 123°55'0 0.0
2015-Jan-23 06:32N 49°10' W 123°55'0 0.0
2015-Jan-23 05:20N 49°10' W 123°55'0 0.0
2015-Jan-23 03:29N 49°10' W 123°55'0 0.0
2015-Jan-23 01:20N 49°10' W 123°55'0 0.0
2015-Jan-23 00:20N 49°10' W 123°55'0 0.0
2015-Jan-22 23:08N 49°10' W 123°55'0 0.0
2015-Jan-22 22:32N 49°10' W 123°55'0 0.0
2015-Jan-22 21:14N 49°10' W 123°55'0 0.0
2015-Jan-22 20:20N 49°10' W 123°55'0 0.0
2015-Jan-22 19:08N 49°10' W 123°55'0 0.0
2015-Jan-22 18:33N 49°10' W 123°55'0 0.0
2015-Jan-22 16:12N 49°10' W 123°55'0 0.0
2015-Jan-22 12:23N 49°10' W 123°55'0 0.0
2015-Jan-22 10:32N 49°10' W 123°55'0 0.0
2015-Jan-22 07:17N 49°10' W 123°55'0 0.0
2015-Jan-22 06:23N 49°10' W 123°55'0 0.0
2015-Jan-22 05:17N 49°10' W 123°55'0 0.0
2015-Jan-22 00:08N 49°10' W 123°55'0 0.0
2015-Jan-21 23:26N 49°10' W 123°55'0 0.0
2015-Jan-21 22:35N 49°10' W 123°55'0 0.0
2015-Jan-21 22:11N 49°10' W 123°55'0 0.0
2015-Jan-21 21:29N 49°10' W 123°55'0 0.0
2015-Jan-21 20:29N 49°10' W 123°55'0 0.0
2015-Jan-21 19:14N 49°10' W 123°55'0 0.0
2015-Jan-21 18:20N 49°10' W 123°55'0 0.0
2015-Jan-21 17:29N 49°10' W 123°55'0 0.0
2015-Jan-21 15:14N 49°10' W 123°55'0 0.0
2015-Jan-21 11:17N 49°10' W 123°55'0 0.0
2015-Jan-21 09:17N 49°10' W 123°55'0 0.0
2015-Jan-21 08:29N 49°10' W 123°55'0 0.0
2015-Jan-21 07:30N 49°10' W 123°55'0 0.0
2015-Jan-21 06:29N 49°10' W 123°55'0 0.0
2015-Jan-21 05:29N 49°10' W 123°55'0 0.0
2015-Jan-21 04:26N 49°10' W 123°55'0 0.0
2015-Jan-21 03:23N 49°10' W 123°55'0 0.0
2015-Jan-21 01:12N 49°10' W 123°55'0 0.0
2015-Jan-20 23:12N 49°10' W 123°55'0 0.0
2015-Jan-20 21:30N 49°10' W 123°55'0 0.0
2015-Jan-20 18:17N 49°10' W 123°55'0 0.0
2015-Jan-20 17:11N 49°10' W 123°55'0 0.0
2015-Jan-20 16:11N 49°10' W 123°55'0 0.0
2015-Jan-20 15:29N 49°10' W 123°55'0 0.0
2015-Jan-20 14:29N 49°10' W 123°55'0 0.0
2015-Jan-20 13:05N 49°10' W 123°55'0 0.0
2015-Jan-20 12:29N 49°10' W 123°55'0 0.0
2015-Jan-20 11:29N 49°10' W 123°55'0 0.0
2015-Jan-20 10:32N 49°10' W 123°55'0 0.0
2015-Jan-20 09:26N 49°10' W 123°55'0 0.0
2015-Jan-20 08:32N 49°10' W 123°55'0 0.0
2015-Jan-20 07:29N 49°10' W 123°55'0 0.0
2015-Jan-20 06:29N 49°10' W 123°55'0 0.0
2015-Jan-20 05:29N 49°10' W 123°55'0 0.0
2015-Jan-20 04:05N 49°10' W 123°55'0 0.0
2015-Jan-20 03:17N 49°10' W 123°55'0 0.0
2015-Jan-19 21:29N 49°10' W 123°55'0 0.0
2015-Jan-19 19:17N 49°10' W 123°55'0 0.0
2015-Jan-19 18:17N 49°10' W 123°55'0 0.0
2015-Jan-19 14:21N 49°10' W 123°55'0 0.0
2015-Jan-19 10:29N 49°10' W 123°55'0 0.0
2015-Jan-19 09:23N 49°10' W 123°55'0 0.0
2015-Jan-19 08:32N 49°10' W 123°55'0 0.0
2015-Jan-19 07:26N 49°10' W 123°55'0 0.0
2015-Jan-19 06:32N 49°10' W 123°55'0 0.0
2015-Jan-19 05:29N 49°10' W 123°55'0 0.0
2015-Jan-19 03:29N 49°10' W 123°55'0 0.0
2015-Jan-19 01:05N 49°10' W 123°55'0 0.0
2015-Jan-18 22:32N 49°10' W 123°55'0 0.0
2015-Jan-18 21:05N 49°10' W 123°55'0 0.0
2015-Jan-18 20:29N 49°10' W 123°55'0 0.0
2015-Jan-18 19:23N 49°10' W 123°55'0 0.0
2015-Jan-18 18:26N 49°10' W 123°55'0 0.0
2015-Jan-18 17:26N 49°10' W 123°55'0 0.0
2015-Jan-18 16:32N 49°10' W 123°55'0 0.0
2015-Jan-18 15:32N 49°10' W 123°55'0 0.0
2015-Jan-18 14:29N 49°10' W 123°55'0 0.0
2015-Jan-18 13:23N 49°10' W 123°56'0 0.0
2015-Jan-18 12:26N 49°10' W 123°55'0 0.0
2015-Jan-18 11:32N 49°10' W 123°55'0 0.0
2015-Jan-18 10:29N 49°10' W 123°55'0 0.0
2015-Jan-18 09:29N 49°10' W 123°55'0 0.0
2015-Jan-18 08:32N 49°10' W 123°55'0 0.0
2015-Jan-18 07:32N 49°10' W 123°55'0 0.0
2015-Jan-18 06:32N 49°10' W 123°55'0 0.0
2015-Jan-18 05:20N 49°10' W 123°55'0 0.0
2015-Jan-18 04:32N 49°10' W 123°55'0 0.0
2015-Jan-18 03:20N 49°10' W 123°55'0 0.0
2015-Jan-18 02:26N 49°10' W 123°55'0 0.0
2015-Jan-18 01:32N 49°10' W 123°55'0 0.0
2015-Jan-18 00:32N 49°10' W 123°55'0 0.0
2015-Jan-17 23:26N 49°10' W 123°55'0 0.0
2015-Jan-17 22:32N 49°10' W 123°55'0 0.0
2015-Jan-17 21:32N 49°10' W 123°55'0 0.0
2015-Jan-17 20:32N 49°10' W 123°55'0 0.0
2015-Jan-17 19:26N 49°10' W 123°55'0 0.0
2015-Jan-17 18:29N 49°10' W 123°55'0 0.0
2015-Jan-17 17:33N 49°10' W 123°55'0 0.0
2015-Jan-17 16:11N 49°10' W 123°55'0 0.0
2015-Jan-17 15:29N 49°10' W 123°55'0 0.0
2015-Jan-17 14:29N 49°10' W 123°55'0 0.0
2015-Jan-17 13:29N 49°10' W 123°55'0 0.0
2015-Jan-17 12:29N 49°10' W 123°55'0 0.0
2015-Jan-17 11:29N 49°10' W 123°55'0 0.0
2015-Jan-17 10:32N 49°10' W 123°55'0 0.0
2015-Jan-17 09:32N 49°10' W 123°55'4 3.6
2015-Jan-17 08:33N 49°13' W 123°52'1313.6
2015-Jan-17 07:33N 49°09' W 123°32'1515.4
2015-Jan-17 06:33N 48°59' W 123°13'1514.5
2015-Jan-17 05:33N 48°48' W 122°60'1312.7
2015-Jan-17 04:34N 48°40' W 123°14'1212.3
2015-Jan-17 03:34N 48°28' W 123°10'1111.0
2015-Jan-17 02:34N 48°21' W 123°24'1111.2
2015-Jan-17 01:33N 48°13' W 123°35'1212.0
2015-Jan-17 00:32N 48°14' W 123°54'1111.8
2015-Jan-16 23:33N 48°18' W 124°10'1211.8
2015-Jan-16 22:33N 48°23' W 124°26'1312.5
2015-Jan-16 21:33N 48°28' W 124°43'1312.6
2015-Jan-16 20:33N 48°29' W 125°02'1212.5
2015-Jan-16 19:33N 48°21' W 125°17'1212.2
2015-Jan-16 18:33N 48°13' W 125°31'  

Dump ship's entire track history